LNG Aquarius — V7BW6 — position and weather

sailwx.info

Track history (hours):
 
Tides and Currents Weather Stations Pressure Air Temp Water Temp Dewpoint Dewpoint Depression Visibility Wind Speed Wind Dir Waves Ship Positions

LNG Aquarius

Last reported at 2018-Mar-21 12:41 UTC. Time now 2018-Apr-25 01:03 UTC.
Position N 35°59' E 120°31'.
Warning: this ship's position is 34 days out of date.

Type: Tanker. MMSI: 538001385.

Date/timePositionNaut miles runAvg speedWind from/ knotsBaromVisibWave heightAir tempDewpointWater temp
2018-Mar-21 12:41N 35°59' E 120°31'1 3.1
2018-Mar-21 12:18N 35°59' E 120°33'514.7
2018-Mar-21 11:59N 35°60' E 120°27'612.3
2018-Mar-21 11:29N 36°01' E 120°20'5 8.4
2018-Mar-21 10:56N 36°04' E 120°16'1 1.2
2018-Mar-21 10:13N 36°05' E 120°15'0 0.1
2018-Mar-21 09:19N 36°05' E 120°15'0 0.0
2018-Mar-21 06:43N 36°05' E 120°15'0 0.0
2018-Mar-21 05:25N 36°05' E 120°15'0 0.1
2018-Mar-21 04:58N 36°05' E 120°15'0 0.0
2018-Mar-21 04:25N 36°05' E 120°15'0 0.1
2018-Mar-21 03:51N 36°05' E 120°15'0 0.0
2018-Mar-21 03:26N 36°05' E 120°15'0 0.0
2018-Mar-21 01:55N 36°05' E 120°15'0 0.0
2018-Mar-21 01:01N 36°05' E 120°15'0 0.0
2018-Mar-21 00:31N 36°05' E 120°15'0 0.0
2018-Mar-21 00:13N 36°05' E 120°15'0 0.0
2018-Mar-20 23:55N 36°05' E 120°15'0 0.0
2018-Mar-20 23:22N 36°05' E 120°15'0 0.1
2018-Mar-20 22:55N 36°05' E 120°15'0 0.1
2018-Mar-20 20:07N 36°05' E 120°15'0 0.1
2018-Mar-20 17:31N 36°05' E 120°15'0 0.0
2018-Mar-20 17:12N 36°05' E 120°15'0 0.0
2018-Mar-20 11:39N 36°05' E 120°15'0 0.3
2018-Mar-20 11:16N 36°05' E 120°15'0 0.1
2018-Mar-20 09:29N 36°05' E 120°15'0 0.0
2018-Mar-20 08:42N 36°05' E 120°15'0 0.1
2018-Mar-20 08:19N 36°05' E 120°15'0 0.1
2018-Mar-20 05:40N 36°05' E 120°15'0 0.1
2018-Mar-20 05:19N 36°05' E 120°15'0 0.5
2018-Mar-20 04:45N 36°05' E 120°15'4 7.6
2018-Mar-20 04:16N 36°02' E 120°18'3 9.4
2018-Mar-20 03:59N 36°01' E 120°21'612.1
2018-Mar-20 03:29N 36°00' E 120°28'312 9.2
2018-Mar-18 17:42N 31°02' E 122°17'313.4
2018-Mar-18 17:30N 31°03' E 122°14'611.6
2018-Mar-18 17:00N 31°03' E 122°07'712.7
2018-Mar-18 16:27N 31°05' E 121°60'511.3
2018-Mar-18 16:00N 31°08' E 121°54'510.1
2018-Mar-18 15:28N 31°12' E 121°50'510.5
2018-Mar-18 15:00N 31°15' E 121°46'1311.6
2018-Mar-18 13:55N 31°23' E 121°35'511.7
2018-Mar-18 13:30N 31°26' E 121°30'511.0
2018-Mar-18 13:00N 31°30' E 121°25'612.0
2018-Mar-18 12:30N 31°33' E 121°20'714.5
2018-Mar-18 12:00N 31°39' E 121°14'4211.9
2018-Mar-18 08:30N 32°01' E 120°33'  
2018-Mar-12 21:27N 31°60' E 120°35'0 0.0
2018-Mar-12 20:51N 31°60' E 120°35'0 0.0
2018-Mar-12 20:30N 31°60' E 120°35'  
Track history (hours):
 
Tides and Currents Weather Stations Pressure Air Temp Water Temp Dewpoint Dewpoint Depression Visibility Wind Speed Wind Dir Waves Ship Positions

LNG Aquarius

Last reported at 2018-Mar-21 12:41 UTC. Time now 2018-Apr-25 01:03 UTC.
Position N 35°59' E 120°31'.
Warning: this ship's position is 34 days out of date.

Type: Tanker. MMSI: 538001385.

Date/timePositionNaut miles runAvg speedWind from/ knotsBaromVisibWave heightAir tempDewpointWater temp
2018-Mar-21 12:41N 35°59' E 120°31'1 3.1
2018-Mar-21 12:18N 35°59' E 120°33'514.7
2018-Mar-21 11:59N 35°60' E 120°27'612.3
2018-Mar-21 11:29N 36°01' E 120°20'5 8.4
2018-Mar-21 10:56N 36°04' E 120°16'1 1.2
2018-Mar-21 10:13N 36°05' E 120°15'0 0.1
2018-Mar-21 09:19N 36°05' E 120°15'0 0.0
2018-Mar-21 06:43N 36°05' E 120°15'0 0.0
2018-Mar-21 05:25N 36°05' E 120°15'0 0.1
2018-Mar-21 04:58N 36°05' E 120°15'0 0.0
2018-Mar-21 04:25N 36°05' E 120°15'0 0.1
2018-Mar-21 03:51N 36°05' E 120°15'0 0.0
2018-Mar-21 03:26N 36°05' E 120°15'0 0.0
2018-Mar-21 01:55N 36°05' E 120°15'0 0.0
2018-Mar-21 01:01N 36°05' E 120°15'0 0.0
2018-Mar-21 00:31N 36°05' E 120°15'0 0.0
2018-Mar-21 00:13N 36°05' E 120°15'0 0.0
2018-Mar-20 23:55N 36°05' E 120°15'0 0.0
2018-Mar-20 23:22N 36°05' E 120°15'0 0.1
2018-Mar-20 22:55N 36°05' E 120°15'0 0.1
2018-Mar-20 20:07N 36°05' E 120°15'0 0.1
2018-Mar-20 17:31N 36°05' E 120°15'0 0.0
2018-Mar-20 17:12N 36°05' E 120°15'0 0.0
2018-Mar-20 11:39N 36°05' E 120°15'0 0.3
2018-Mar-20 11:16N 36°05' E 120°15'0 0.1
2018-Mar-20 09:29N 36°05' E 120°15'0 0.0
2018-Mar-20 08:42N 36°05' E 120°15'0 0.1
2018-Mar-20 08:19N 36°05' E 120°15'0 0.1
2018-Mar-20 05:40N 36°05' E 120°15'0 0.1
2018-Mar-20 05:19N 36°05' E 120°15'0 0.5
2018-Mar-20 04:45N 36°05' E 120°15'4 7.6
2018-Mar-20 04:16N 36°02' E 120°18'3 9.4
2018-Mar-20 03:59N 36°01' E 120°21'612.1
2018-Mar-20 03:29N 36°00' E 120°28'312 9.2
2018-Mar-18 17:42N 31°02' E 122°17'313.4
2018-Mar-18 17:30N 31°03' E 122°14'611.6
2018-Mar-18 17:00N 31°03' E 122°07'712.7
2018-Mar-18 16:27N 31°05' E 121°60'511.3
2018-Mar-18 16:00N 31°08' E 121°54'510.1
2018-Mar-18 15:28N 31°12' E 121°50'510.5
2018-Mar-18 15:00N 31°15' E 121°46'1311.6
2018-Mar-18 13:55N 31°23' E 121°35'511.7
2018-Mar-18 13:30N 31°26' E 121°30'511.0
2018-Mar-18 13:00N 31°30' E 121°25'612.0
2018-Mar-18 12:30N 31°33' E 121°20'714.5
2018-Mar-18 12:00N 31°39' E 121°14'4211.9
2018-Mar-18 08:30N 32°01' E 120°33'  
2018-Mar-12 21:27N 31°60' E 120°35'0 0.0
2018-Mar-12 20:51N 31°60' E 120°35'0 0.0
2018-Mar-12 20:30N 31°60' E 120°35'  

Dump ship's entire track history